createdAt,value
2022-09-04T00:00:09.022Z,100669.53
2022-09-04T00:03:28.716Z,100688.66
2022-09-04T00:06:24.364Z,100682.72
2022-09-04T00:09:26.929Z,100687.03
2022-09-04T00:12:15.415Z,100665.38
2022-09-04T00:15:27.165Z,100684.31
2022-09-04T00:18:39.572Z,100695.16
2022-09-04T00:21:45.039Z,100703.47
2022-09-04T00:24:43.405Z,100710.56
2022-09-04T00:27:43.644Z,100682.91
2022-09-04T00:30:34.323Z,100717.91
2022-09-04T00:33:38.460Z,100711.06
2022-09-04T00:36:28.302Z,100718.16
2022-09-04T00:39:20.378Z,100699.22
2022-09-04T00:42:27.627Z,100720.69
2022-09-04T00:45:56.570Z,100705.59
2022-09-04T00:49:32.777Z,100646.09
2022-09-04T00:52:58.475Z,100730.06
2022-09-04T00:56:27.915Z,100726.38
2022-09-04T00:59:50.321Z,100726.47
2022-09-04T01:02:51.898Z,100730.81
2022-09-04T01:06:04.230Z,100742.03
2022-09-04T01:09:04.214Z,100737.25
2022-09-04T01:12:18.055Z,100735.69
2022-09-04T01:15:15.744Z,100736.06
2022-09-04T01:18:34.289Z,100697.56
2022-09-04T01:21:45.667Z,100728.22
2022-09-04T01:25:11.267Z,100733.69
2022-09-04T01:28:29.510Z,100735.41
2022-09-04T01:31:27.263Z,100699.22
2022-09-04T01:34:28.416Z,100723.69
2022-09-04T01:38:00.304Z,100712.97
2022-09-04T01:41:22.772Z,100718.94
2022-09-04T01:44:11.104Z,100717.75
2022-09-04T01:46:58.869Z,100712.69
2022-09-04T01:50:11.041Z,100719.50
2022-09-04T01:57:20.507Z,100707.63
2022-09-04T02:00:14.366Z,100703.59
2022-09-04T02:03:07.267Z,100714.00
2022-09-04T02:06:15.665Z,100720.31
2022-09-04T02:09:11.773Z,100713.50
2022-09-04T02:12:12.344Z,100703.19
2022-09-04T02:15:13.117Z,100705.25
2022-09-04T02:18:36.286Z,100709.22
2022-09-04T02:21:33.301Z,100683.69
2022-09-04T02:24:49.559Z,100696.88
2022-09-04T02:27:39.874Z,100698.06
2022-09-04T02:30:32.710Z,100693.59
2022-09-04T02:33:46.090Z,100702.03
2022-09-04T02:36:50.102Z,100662.44
2022-09-04T02:40:01.219Z,100698.56
2022-09-04T02:43:10.738Z,100684.84
2022-09-04T02:46:13.485Z,100697.41
2022-09-04T02:49:07.942Z,100698.97
2022-09-04T02:52:21.003Z,100711.66
2022-09-04T02:55:46.301Z,100696.09
2022-09-04T02:58:36.662Z,100702.88
2022-09-04T03:01:37.793Z,100693.97
2022-09-04T03:04:50.280Z,100702.09
2022-09-04T03:07:44.446Z,100688.34
2022-09-04T03:10:40.864Z,100710.44
2022-09-04T03:13:35.859Z,100699.59
2022-09-04T03:16:38.603Z,100673.81
2022-09-04T03:20:07.440Z,100704.25
2022-09-04T03:22:59.585Z,100715.81
2022-09-04T03:26:01.867Z,100713.41
2022-09-04T03:29:01.360Z,100722.66
2022-09-04T03:31:58.845Z,100720.66
2022-09-04T03:34:56.483Z,100719.75
2022-09-04T03:37:54.258Z,100699.59
2022-09-04T03:40:49.615Z,100726.47
2022-09-04T03:43:55.770Z,100733.69
2022-09-04T03:46:50.661Z,100735.34
2022-09-04T03:50:05.868Z,100727.91
2022-09-04T03:53:14.858Z,100744.38
2022-09-04T03:56:26.806Z,100760.28
2022-09-04T03:59:27.501Z,100747.25
2022-09-04T04:02:52.462Z,100746.47
2022-09-04T04:05:52.769Z,100686.13
2022-09-04T04:09:04.678Z,100750.38
2022-09-04T04:12:13.335Z,100757.50
2022-09-04T04:15:28.370Z,100764.66
2022-09-04T04:18:55.586Z,100769.50
2022-09-04T04:22:01.819Z,100778.59
2022-09-04T04:25:04.553Z,100777.47
2022-09-04T04:28:00.938Z,100780.66
2022-09-04T04:30:52.659Z,100787.44
2022-09-04T04:34:06.671Z,100797.81
2022-09-04T04:37:22.208Z,100794.22
2022-09-04T04:40:32.634Z,100804.34
2022-09-04T04:43:35.252Z,100812.66
2022-09-04T04:46:37.101Z,100813.94
2022-09-04T04:49:32.510Z,100827.09
2022-09-04T04:52:44.650Z,100807.06
2022-09-04T04:55:50.519Z,100826.00
2022-09-04T04:58:43.694Z,100825.22
2022-09-04T05:01:52.928Z,100826.00
2022-09-04T05:05:13.628Z,100822.56
2022-09-04T05:08:10.424Z,100829.44
2022-09-04T05:11:35.632Z,100838.28
2022-09-04T05:14:38.035Z,100838.28
2022-09-04T05:17:37.147Z,100835.63
2022-09-04T05:20:32.869Z,100823.66
2022-09-04T05:23:58.955Z,100821.78
2022-09-04T05:27:03.571Z,100804.63
2022-09-04T05:30:10.706Z,100815.59
2022-09-04T05:33:15.633Z,100813.59
2022-09-04T05:36:13.841Z,100808.97
2022-09-04T05:39:20.765Z,100813.06
2022-09-04T05:42:48.949Z,100819.53
2022-09-04T05:46:05.156Z,100824.00
2022-09-04T05:49:10.993Z,100813.22
2022-09-04T05:52:10.781Z,100822.94
2022-09-04T05:55:16.470Z,100815.47
2022-09-04T05:58:20.656Z,100815.13
2022-09-04T06:01:26.496Z,100809.53
2022-09-04T06:04:49.145Z,100806.56
2022-09-04T06:07:50.848Z,100809.06
2022-09-04T06:10:38.465Z,100802.69
2022-09-04T06:14:11.462Z,100810.63
2022-09-04T06:17:44.657Z,100793.69
2022-09-04T06:20:58.384Z,100797.63
2022-09-04T06:24:04.698Z,100807.69
2022-09-04T06:27:23.894Z,100768.63
2022-09-04T06:30:14.098Z,100763.50
2022-09-04T06:33:10.735Z,100770.72
2022-09-04T06:36:14.065Z,100765.19
2022-09-04T06:39:26.461Z,100772.03
2022-09-04T06:42:27.653Z,100772.41
2022-09-04T06:45:23.137Z,100777.59
2022-09-04T06:48:23.041Z,100751.97
2022-09-04T06:51:33.791Z,100770.34
2022-09-04T06:54:49.803Z,100779.13
2022-09-04T06:57:49.249Z,100762.72
2022-09-04T07:00:46.593Z,100773.16
2022-09-04T07:04:04.625Z,100782.34
2022-09-04T07:07:08.627Z,100755.94
2022-09-04T07:10:16.481Z,100760.34
2022-09-04T07:13:38.016Z,100795.59
2022-09-04T07:16:44.587Z,100789.97
2022-09-04T07:20:01.358Z,100779.97
2022-09-04T07:23:17.130Z,100798.41
2022-09-04T07:26:19.749Z,100778.38
2022-09-04T07:29:31.977Z,100768.38
2022-09-04T07:32:34.842Z,100801.19
2022-09-04T07:35:29.366Z,100806.75
2022-09-04T07:38:32.615Z,100811.56
2022-09-04T07:41:39.161Z,100818.75
2022-09-04T07:44:47.091Z,100805.94
2022-09-04T07:47:47.991Z,100809.94
2022-09-04T07:50:41.249Z,100791.19
2022-09-04T07:53:44.099Z,100739.34
2022-09-04T07:56:38.269Z,100810.91
2022-09-04T07:59:54.200Z,100813.78
2022-09-04T08:03:19.193Z,100822.03
2022-09-04T08:06:15.088Z,100821.06
2022-09-04T08:09:08.545Z,100827.50
2022-09-04T08:12:06.486Z,100826.66
2022-09-04T08:15:16.337Z,100822.88
2022-09-04T08:18:20.282Z,100831.47
2022-09-04T08:21:12.929Z,100825.53
2022-09-04T08:24:15.898Z,100816.19
2022-09-04T08:27:27.815Z,100793.28
2022-09-04T08:30:19.396Z,100810.97
2022-09-04T08:33:33.470Z,100817.78
2022-09-04T08:36:35.078Z,100825.53
2022-09-04T08:39:51.298Z,100822.72
2022-09-04T08:43:09.306Z,100822.41
2022-09-04T08:46:00.081Z,100816.38
2022-09-04T08:48:59.605Z,100825.53
2022-09-04T08:51:50.062Z,100818.38
2022-09-04T08:55:12.069Z,100819.88
2022-09-04T08:58:13.244Z,100800.78
2022-09-04T09:01:30.100Z,100804.81
2022-09-04T09:04:48.830Z,100836.63
2022-09-04T09:08:07.444Z,100835.59
2022-09-04T09:11:07.019Z,100810.50
2022-09-04T09:14:13.249Z,100831.28
2022-09-04T09:17:12.613Z,100831.47
2022-09-04T09:20:25.534Z,100831.09
2022-09-04T09:23:20.415Z,100819.97
2022-09-04T09:26:17.567Z,100836.03
2022-09-04T09:29:42.506Z,100827.22
2022-09-04T09:32:48.846Z,100821.06
2022-09-04T09:36:02.899Z,100822.72
2022-09-04T09:39:02.555Z,100816.41
2022-09-04T09:42:08.454Z,100796.16
2022-09-04T09:45:08.982Z,100814.41
2022-09-04T09:48:26.325Z,100803.91
2022-09-04T09:51:32.961Z,100817.09
2022-09-04T09:54:48.347Z,100792.47
2022-09-04T09:57:50.951Z,100815.38
2022-09-04T10:00:46.573Z,100823.63
2022-09-04T10:03:40.138Z,100812.09
2022-09-04T10:06:50.794Z,100824.84
2022-09-04T10:09:48.158Z,100820.88
2022-09-04T10:13:03.345Z,100833.91
2022-09-04T10:16:17.340Z,100838.72
2022-09-04T10:19:16.631Z,100812.16
2022-09-04T10:22:37.866Z,100828.06
2022-09-04T10:25:49.169Z,100803.06
2022-09-04T10:29:11.445Z,100808.31
2022-09-04T10:32:34.516Z,100815.44
2022-09-04T10:35:43.511Z,100794.97
2022-09-04T10:39:08.152Z,100798.78
2022-09-04T10:42:08.016Z,100742.16
2022-09-04T10:44:58.893Z,100799.44
2022-09-04T10:48:02.174Z,100797.22
2022-09-04T10:51:19.429Z,100789.97
2022-09-04T10:54:36.977Z,100775.44
2022-09-04T10:57:41.382Z,100783.69
2022-09-04T11:01:10.714Z,100779.75
2022-09-04T11:04:47.513Z,100777.22
2022-09-04T11:08:22.725Z,100786.50
2022-09-04T11:11:14.306Z,100733.91
2022-09-04T11:14:06.708Z,100773.00
2022-09-04T11:17:24.575Z,100766.41
2022-09-04T11:20:34.471Z,100771.75
2022-09-04T11:23:40.986Z,100775.38
2022-09-04T11:27:05.943Z,100768.31
2022-09-04T11:30:04.725Z,100759.94
2022-09-04T11:33:14.446Z,100766.03
2022-09-04T11:36:02.133Z,100719.69
2022-09-04T11:38:52.315Z,100757.16
2022-09-04T11:42:09.909Z,100759.28
2022-09-04T11:45:11.546Z,100762.06
2022-09-04T11:48:25.704Z,100759.31
2022-09-04T11:51:40.787Z,100763.88
2022-09-04T11:54:57.305Z,100752.06
2022-09-04T11:57:53.054Z,100731.56
2022-09-04T12:01:09.976Z,100751.06
2022-09-04T12:04:23.338Z,100753.50
2022-09-04T12:07:19.067Z,100756.53
2022-09-04T12:10:56.936Z,100743.28
2022-09-04T12:14:16.644Z,100744.53
2022-09-04T12:17:44.773Z,100749.94
2022-09-04T12:21:07.342Z,100742.00
2022-09-04T12:24:30.866Z,100742.56
2022-09-04T12:27:36.132Z,100735.31
2022-09-04T12:30:31.974Z,100712.31
2022-09-04T12:33:47.420Z,100731.34
2022-09-04T12:37:31.310Z,100725.13
2022-09-04T12:40:28.575Z,100730.34
2022-09-04T12:43:31.273Z,100742.94
2022-09-04T12:46:56.110Z,100729.91
2022-09-04T12:49:59.116Z,100735.34
2022-09-04T12:52:56.567Z,100741.19
2022-09-04T12:56:13.867Z,100743.91
2022-09-04T12:59:26.872Z,100672.78
2022-09-04T13:02:41.534Z,100724.81
2022-09-04T13:05:55.601Z,100740.47
2022-09-04T13:09:10.336Z,100741.31
2022-09-04T13:12:37.580Z,100744.25
2022-09-04T13:16:18.988Z,100730.56
2022-09-04T13:19:13.921Z,100724.53
2022-09-04T13:22:13.146Z,100716.59
2022-09-04T13:25:12.690Z,100728.06
2022-09-04T13:28:03.470Z,100702.72
2022-09-04T13:31:19.538Z,100715.09
2022-09-04T13:34:16.972Z,100726.53
2022-09-04T13:37:13.801Z,100720.97
2022-09-04T13:40:10.799Z,100712.22
2022-09-04T13:43:27.600Z,100716.47
2022-09-04T13:46:21.069Z,100685.88
2022-09-04T13:49:16.643Z,100629.88
2022-09-04T13:52:08.708Z,100704.97
2022-09-04T13:55:22.714Z,100711.72
2022-09-04T13:58:24.163Z,100708.78
2022-09-04T14:01:15.899Z,100704.66
2022-09-04T14:04:07.970Z,100710.91
2022-09-04T14:07:02.645Z,100710.88
2022-09-04T14:09:57.539Z,100711.94
2022-09-04T14:13:04.162Z,100704.44
2022-09-04T14:16:14.756Z,100707.72
2022-09-04T14:19:18.322Z,100714.00
2022-09-04T14:22:23.115Z,100711.06
2022-09-04T14:25:28.628Z,100720.16
2022-09-04T14:28:53.297Z,100729.88
2022-09-04T14:32:16.051Z,100728.75
2022-09-04T14:35:36.063Z,100724.59
2022-09-04T14:38:44.976Z,100714.72
2022-09-04T14:41:37.816Z,100746.56
2022-09-04T14:44:44.347Z,100739.03
2022-09-04T14:47:55.646Z,100697.25
2022-09-04T14:50:55.955Z,100713.47
2022-09-04T14:53:50.469Z,100718.25
2022-09-04T14:56:49.610Z,100705.16
2022-09-04T15:00:02.408Z,100728.63
2022-09-04T15:03:02.542Z,100719.59
2022-09-04T15:06:02.160Z,100724.44
2022-09-04T15:08:50.901Z,100710.53
2022-09-04T15:11:38.725Z,100719.84
2022-09-04T15:14:37.146Z,100731.38
2022-09-04T15:17:29.699Z,100720.63
2022-09-04T15:20:28.559Z,100702.06
2022-09-04T15:23:47.311Z,100727.78
2022-09-04T15:26:46.718Z,100718.97
2022-09-04T15:29:54.940Z,100729.44
2022-09-04T15:32:47.362Z,100737.09
2022-09-04T15:35:36.494Z,100730.75
2022-09-04T15:38:28.269Z,100729.41
2022-09-04T15:41:19.670Z,100726.81
2022-09-04T15:44:31.918Z,100723.31
2022-09-04T15:47:56.281Z,100736.13
2022-09-04T15:51:21.112Z,100725.97
2022-09-04T15:54:21.927Z,100728.13
2022-09-04T15:57:46.131Z,100733.00
2022-09-04T16:00:38.622Z,100722.91
2022-09-04T16:03:36.814Z,100719.50
2022-09-04T16:06:32.529Z,100728.66
2022-09-04T16:09:33.999Z,100738.06
2022-09-04T16:12:31.787Z,100743.38
2022-09-04T16:15:38.082Z,100745.91
2022-09-04T16:18:35.423Z,100724.03
2022-09-04T16:21:58.439Z,100744.03
2022-09-04T16:24:58.174Z,100738.44
2022-09-04T16:28:20.301Z,100736.91
2022-09-04T16:31:14.667Z,100742.66
2022-09-04T16:34:16.720Z,100738.34
2022-09-04T16:37:16.536Z,100725.22
2022-09-04T16:40:27.579Z,100745.59
2022-09-04T16:43:36.312Z,100742.50
2022-09-04T16:46:32.737Z,100747.94
2022-09-04T16:49:29.837Z,100741.16
2022-09-04T16:52:27.616Z,100742.44
2022-09-04T16:55:35.938Z,100742.03
2022-09-04T16:58:50.550Z,100742.09
2022-09-04T17:01:56.019Z,100736.22
2022-09-04T17:04:52.885Z,100751.59
2022-09-04T17:07:51.781Z,100769.66
2022-09-04T17:11:16.927Z,100765.25
2022-09-04T17:14:22.907Z,100759.41
2022-09-04T17:17:30.609Z,100763.00
2022-09-04T17:26:22.673Z,100764.25
2022-09-04T17:28:59.674Z,100767.13
2022-09-04T17:29:11.494Z,100770.03
2022-09-04T17:31:07.326Z,100775.28
2022-09-04T17:40:35.641Z,100780.09
2022-09-04T17:40:40.546Z,100776.16
2022-09-04T17:41:57.032Z,100786.53
2022-09-04T17:44:54.014Z,100791.78
2022-09-04T17:47:43.666Z,100792.25
2022-09-04T17:50:31.704Z,100806.66
2022-09-04T17:53:34.741Z,100813.88
2022-09-04T17:56:45.878Z,100811.09
2022-09-04T17:59:50.589Z,100825.56
2022-09-04T18:02:59.885Z,100806.75
2022-09-04T18:06:04.127Z,100830.38
2022-09-04T18:09:03.680Z,100843.97
2022-09-04T18:12:11.286Z,100829.97
2022-09-04T18:15:33.080Z,100829.59
2022-09-04T18:18:48.375Z,100834.34
2022-09-04T18:21:53.955Z,100842.38
2022-09-04T18:25:00.183Z,100845.59
2022-09-04T18:28:21.818Z,100844.81
2022-09-04T18:37:06.871Z,100840.38
2022-09-04T18:37:24.738Z,100845.19
2022-09-04T18:38:50.219Z,100847.59
2022-09-04T18:50:23.192Z,100849.22
2022-09-04T18:50:45.371Z,100856.41
2022-09-04T18:50:51.123Z,100851.22
2022-09-04T18:52:29.992Z,100853.22
2022-09-04T18:55:25.011Z,100858.41
2022-09-04T18:58:12.851Z,100798.81
2022-09-04T19:01:07.315Z,100871.22
2022-09-04T19:04:23.892Z,100874.81
2022-09-04T19:07:30.282Z,100880.47
2022-09-04T19:10:34.710Z,100884.84
2022-09-04T19:13:28.267Z,100874.06
2022-09-04T19:16:45.788Z,100867.66
2022-09-04T19:19:47.074Z,100876.03
2022-09-04T19:22:40.096Z,100868.44
2022-09-04T19:25:35.206Z,100878.44
2022-09-04T19:28:29.424Z,100871.63
2022-09-04T19:31:29.993Z,100866.84
2022-09-04T19:34:28.646Z,100886.44
2022-09-04T19:40:16.588Z,100876.44
2022-09-04T19:46:07.641Z,100893.22
2022-09-04T19:46:13.205Z,100893.22
2022-09-04T19:47:53.991Z,100897.22
2022-09-04T19:53:19.282Z,100896.03
2022-09-04T19:54:11.265Z,100882.81
2022-09-04T19:57:32.752Z,100892.00
2022-09-04T20:00:31.090Z,100894.38
2022-09-04T20:03:55.169Z,100897.19
2022-09-04T20:06:52.859Z,100889.13
2022-09-04T20:09:49.122Z,100889.94
2022-09-04T20:12:51.389Z,100899.09
2022-09-04T20:15:51.951Z,100904.28
2022-09-04T20:18:50.984Z,100886.63
2022-09-04T20:21:56.723Z,100886.63
2022-09-04T20:25:01.269Z,100878.22
2022-09-04T20:28:09.044Z,100910.97
2022-09-04T20:31:35.901Z,100915.72
2022-09-04T20:34:35.414Z,100913.72
2022-09-04T20:37:44.792Z,100886.47
2022-09-04T20:40:44.473Z,100916.06
2022-09-04T20:43:38.576Z,100914.06
2022-09-04T20:52:42.941Z,100903.63
2022-09-04T20:52:57.623Z,100901.13
2022-09-04T20:54:06.819Z,100905.53
2022-09-04T21:01:39.953Z,100904.31
2022-09-04T21:03:09.889Z,100904.22
2022-09-04T21:03:42.301Z,100890.66
2022-09-04T21:06:52.982Z,100895.91
2022-09-04T21:09:55.720Z,100887.44
2022-09-04T21:13:14.442Z,100893.03
2022-09-04T21:16:20.456Z,100893.31
2022-09-04T21:19:32.864Z,100898.97
2022-09-04T21:22:48.810Z,100878.06
2022-09-04T21:26:00.217Z,100897.69
2022-09-04T21:29:10.824Z,100906.06
2022-09-04T21:32:09.307Z,100911.66
2022-09-04T21:35:04.877Z,100896.72
2022-09-04T21:38:05.420Z,100914.78
2022-09-04T21:41:11.391Z,100907.16
2022-09-04T21:44:27.650Z,100913.91
2022-09-04T21:47:28.114Z,100917.88
2022-09-04T21:50:42.828Z,100892.59
2022-09-04T21:53:53.378Z,100918.94
2022-09-04T22:02:25.467Z,100917.72
2022-09-04T22:02:35.691Z,100916.88
2022-09-04T22:03:31.916Z,100924.84
2022-09-04T22:13:37.959Z,100923.94
2022-09-04T22:14:10.699Z,100921.94
2022-09-04T22:17:14.491Z,100844.00
2022-09-04T22:20:33.115Z,100925.06
2022-09-04T22:24:06.932Z,100918.72
2022-09-04T22:27:12.598Z,100902.69
2022-09-04T22:30:09.763Z,100901.88
2022-09-04T22:33:09.421Z,100885.78
2022-09-04T22:36:32.564Z,100918.31
2022-09-04T22:39:30.978Z,100910.66
2022-09-04T22:42:53.172Z,100910.66
2022-09-04T22:46:30.731Z,100911.88
2022-09-04T22:49:33.676Z,100912.97
2022-09-04T22:52:29.060Z,100890.13
2022-09-04T22:56:24.242Z,100906.59
2022-09-04T22:59:27.927Z,100912.50
2022-09-04T23:03:07.324Z,100916.41
2022-09-04T23:06:59.008Z,100918.34
2022-09-04T23:13:47.863Z,100895.47
2022-09-04T23:13:58.563Z,100914.66
2022-09-04T23:16:29.628Z,100915.78
2022-09-04T23:22:56.639Z,100893.66
2022-09-04T23:26:34.769Z,100919.03
2022-09-04T23:26:58.618Z,100919.88
2022-09-04T23:30:12.798Z,100919.81
2022-09-04T23:33:27.977Z,100902.50
2022-09-04T23:36:33.609Z,100926.91
2022-09-04T23:39:46.567Z,100927.19
2022-09-04T23:43:10.148Z,100922.34
2022-09-04T23:46:18.252Z,100943.47
2022-09-04T23:49:47.528Z,100940.56
2022-09-04T23:52:48.890Z,100918.38
2022-09-04T23:56:17.035Z,100949.72
2022-09-04T23:59:32.416Z,100940.91
